Station: NOARLUNGA AWS

  Atmospheric Gas Attenuation - ITU Rec 676-11   --------------- db/100km ---------------
Date Time Temp RH % AH g/m3 Dew Point Wind Direction Speed kph Gust kph Barometer mB Rainfall Since 9am 24GHz 47GHz 76GHz 122GHz 134GHz 241GHz
03 09:00 19.2 54 8.9 9.7 11 19 1013.1 0 20.0 24.8 38.3 100.6 95.5 329.1
03 08:50 18.8 52 8.37 8.7 11 15 1013.1 0 18.9 24.1 36.5 95.8 89.5 307.9
03 08:40 18.7 53 8.48 8.9 4 6 1013.1 0 19.1 24.3 37.0 97.0 90.9 313.0
03 08:30 18.1 55 8.5 8.9 6 13 1013.1 0 19.2 24.5 37.3 97.9 91.9 316.2
03 08:20 17.8 55 8.35 8.6 9 11 1013.1 0 18.9 24.4 36.9 96.8 90.4 310.9
03 08:10 17.7 56 8.45 9 9 11 1013.1 0 19.1 24.6 37.3 97.9 91.7 315.6
03 08:00 17.1 62 9.02 9.8 7 11 1013.1 0 20.3 25.6 39.8 104.5 99.7 343.3
03 07:50 16.9 64 9.2 10 6 7 1013.1 0 20.7 25.9 40.6 106.7 102.2 352.3
03 07:40 16.6 67 9.46 10.4 7 11 1013.1 0 21.3 26.5 41.8 109.8 106.0 365.5
03 07:30 16.4 68 9.49 10.5 7 13 1013.1 0 21.4 26.6 42.0 110.4 106.7 367.8
03 07:20 16.4 67 9.35 10.4 7 9 1013.1 0 21.1 26.3 41.5 108.9 104.8 361.4
03 07:10 16 70 9.54 10.5 9 11 1013.1 0 21.5 26.8 42.4 111.5 107.9 372.0
03 07:00 15.9 72 9.75 10.9 7 11 1013.1 0 21.9 27.1 43.3 113.9 110.8 382.3
03 06:50 15.5 72 9.52 10.6 7 7 1013.1 0 21.5 26.9 42.6 112.0 108.3 373.5
03 06:40 15 75 9.62 10.6 4 6 1013.1 0 21.7 27.2 43.3 113.8 110.4 380.6
03 06:30 14.5 78 9.7 10.7 6 7 1013.1 0 21.9 27.5 43.9 115.4 112.2 386.8
03 06:20 13.8 80 9.53 10.4 6 6 1013.1 0 21.6 27.4 43.6 114.6 110.9 382.2
03 06:10 13.7 80 9.47 10.3 6 6 1013.1 0 21.5 27.3 43.4 114.1 110.2 379.8
03 06:00 13.7 79 9.36 10.1 0 6 1013.1 0 21.2 27.2 42.9 112.8 108.7 374.5
03 05:50 13.9 78 9.35 10.1 0 0 1013.1 0 21.2 27.1 42.8 112.4 108.3 373.1
03 05:40 14 78 9.41 10.2 0 0 1013.1 0 21.3 27.2 43.0 113.0 109.0 375.5
03 05:30 14 77 9.29 10 0 0 1013.1 0 21.1 27.0 42.5 111.6 107.3 369.8
03 05:20 14.2 77 9.4 10.2 0 0 1013.1 0 21.3 27.1 42.8 112.6 108.5 374.0
03 05:00 14.3 76 9.34 10.1 0 0 1013.1 0 21.1 26.9 42.5 111.8 107.6 370.7
03 04:50 14.4 76 9.39 10.2 0 0 1013.1 0 21.2 27.0 42.7 112.2 108.1 372.6
03 04:40 14.4 76 9.39 10.2 0 0 1013.1 0 21.2 27.0 42.7 112.2 108.1 372.6
03 04:30 14.4 76 9.39 10.2 0 0 1013.1 0 21.2 27.0 42.7 112.2 108.1 372.6
03 04:20 14.3 76 9.34 10.1 0 0 1013.1 0 21.1 26.9 42.5 111.8 107.6 370.7
03 04:10 14.3 76 9.34 10.1 0 0 1013.1 0 21.1 26.9 42.5 111.8 107.6 370.7
03 04:00 14.2 77 9.4 10.2 0 0 1013.1 0 21.3 27.1 42.8 112.6 108.5 374.0
03 03:50 14.1 77 9.35 10.1 0 0 1013.1 0 21.2 27.0 42.7 112.2 108.0 372.2
03 03:40 14 77 9.29 10 0 0 1013.1 0 21.1 27.0 42.5 111.6 107.3 369.8
03 03:30 13.9 77 9.23 9.9 0 0 1013.1 0 20.9 26.9 42.3 111.1 106.7 367.4
03 03:20 14 77 9.29 10 0 0 1013.1 0 21.1 27.0 42.5 111.6 107.3 369.8
03 03:10 13.9 77 9.23 9.9 0 0 1013.1 0 20.9 26.9 42.3 111.1 106.7 367.4
03 03:00 13.8 77 9.17 9.8 0 0 1013.1 0 20.8 26.8 42.1 110.6 106.0 365.1
03 02:50 13.6 77 9.06 9.6 0 0 1013.1 0 20.6 26.7 41.8 109.7 104.8 360.8
03 02:40 13.6 77 9.06 9.6 0 0 1013.1 0 20.6 26.7 41.8 109.7 104.8 360.8
03 02:30 13.6 77 9.06 9.6 0 0 1013.1 0 20.6 26.7 41.8 109.7 104.8 360.8
03 02:20 13.5 78 9.12 9.7 0 0 1013.1 0 20.7 26.8 42.1 110.5 105.7 364.1
03 02:10 13.4 79 9.18 9.8 0 0 1013.1 0 20.9 27.0 42.4 111.3 106.7 367.4
03 02:00 13.2 79 9.07 9.6 0 0 1013.1 0 20.6 26.8 42.0 110.4 105.5 363.1
03 01:50 13 80 9.07 9.6 0 0 1013.1 0 20.6 26.9 42.1 110.6 105.7 364.1
03 01:40 12.7 80 8.91 9.3 0 0 1013.1 0 20.3 26.7 41.6 109.3 104.0 357.9
03 01:30 12.7 80 8.91 9.3 0 0 1013.1 0 20.3 26.7 41.6 109.3 104.0 357.9
03 01:20 12.5 80 8.8 9.1 0 0 1013.1 0 20.1 26.6 41.3 108.4 102.8 353.6
03 01:10 12.2 80 8.63 8.8 0 0 1013.1 0 19.7 26.4 40.7 106.9 100.8 346.9
03 01:00 12.2 80 8.63 8.9 4 6 1013.1 0 19.7 26.4 40.7 106.9 100.8 346.9
03 00:50 12.3 80 8.69 8.9 4 6 1013.1 0 19.9 26.5 40.9 107.4 101.5 349.2
03 00:40 12.3 80 8.69 8.9 4 6 1013.1 0 19.9 26.5 40.9 107.4 101.5 349.2
03 00:30 12.2 80 8.63 8.9 4 6 1013.1 0 19.7 26.4 40.7 106.9 100.8 346.9
03 00:20 12.3 80 8.69 8.9 4 4 1013.1 0 19.9 26.5 40.9 107.4 101.5 349.2
03 00:10 12.2 78 8.42 8.6 4 4 1013.1 0 19.3 26.1 39.9 104.6 98.0 337.0
03 00:00 12.4 79 8.63 8.9 6 7 1013.1 0 19.7 26.3 40.6 106.6 100.6 346.0
02 23:50 12.5 77 8.47 8.7 6 7 1013.1 0 19.4 26.1 39.9 104.8 98.3 338.0
02 23:40 12.5 76 8.36 8.5 4 6 1013.1 0 19.1 25.9 39.5 103.6 96.8 332.9
02 23:30 12.6 77 8.52 8.7 6 7 1013.1 0 19.5 26.1 40.1 105.2 98.9 339.9
02 23:20 12.8 75 8.4 8.6 6 7 1013.1 0 19.2 25.9 39.5 103.6 97.0 333.5
02 23:10 12.9 75 8.45 8.7 6 7 1013.1 0 19.3 25.9 39.6 104.0 97.5 335.4
02 23:00 12.9 76 8.57 8.8 7 13 1013.1 0 19.6 26.1 40.1 105.3 99.1 341.0
02 22:50 13 74 8.39 8.6 11 15 1013.1 0 19.2 25.8 39.3 103.2 96.6 332.1
02 22:40 13.2 73 8.38 8.6 11 13 1013.1 0 19.1 25.7 39.2 102.9 96.2 330.8
02 22:30 13.3 74 8.55 8.8 11 15 1013.1 0 19.5 26.0 39.8 104.6 98.4 338.3
02 22:20 13.3 72 8.32 8.5 9 11 1013.1 0 19.0 25.6 38.9 102.1 95.3 327.6
02 22:10 13.4 73 8.49 8.6 11 13 1013.1 0 19.4 25.8 39.5 103.8 97.4 335.1
02 22:00 13.6 72 8.47 8.7 9 15 1013.1 0 19.3 25.7 39.4 103.3 96.9 333.3
02 21:50 13.7 71 8.41 8.5 11 13 1013.1 0 19.2 25.6 39.1 102.5 96.0 330.1
02 21:40 13.8 70 8.34 8.4 9 13 1013.1 0 19.0 25.5 38.8 101.7 95.0 326.5
02 21:30 13.9 70 8.39 8.5 11 17 1013.1 0 19.1 25.5 38.9 102.1 95.5 328.4
02 21:20 14.1 69 8.37 8.5 9 13 1013.1 0 19.1 25.4 38.7 101.6 95.0 326.6
02 21:10 14.2 67 8.18 8.3 13 17 1013.1 0 18.7 25.1 37.9 99.5 92.4 317.6
02 21:00 14.3 68 8.35 8.5 15 20 1013.1 0 19.0 25.3 38.5 101.1 94.5 324.9
02 20:50 14.4 67 8.28 8.3 11 19 1013.1 0 18.9 25.2 38.2 100.3 93.5 321.3
02 20:40 14.6 65 8.13 8.1 13 17 1013.1 0 18.5 24.9 37.5 98.4 91.3 313.7
02 20:30 14.8 64 8.11 8.1 15 22 1013.1 0 18.5 24.8 37.4 98.0 90.8 312.0
02 20:20 15.1 63 8.13 8.1 20 26 1013.1 0 18.5 24.8 37.3 97.8 90.7 311.7
02 20:10 15.4 61 8.01 8.1 13 19 1013.1 0 18.3 24.5 36.7 96.2 88.8 305.2
02 20:00 15.7 61 8.16 8.2 17 26 1013.1 0 18.6 24.7 37.1 97.4 90.4 310.7
02 19:50 16.1 58 7.95 7.8 19 22 1013.1 0 18.1 24.2 36.2 94.8 87.3 299.9
02 19:40 16.5 56 7.86 7.7 20 24 1013.1 0 17.9 24.0 35.6 93.4 85.7 294.5
02 19:30 17.2 56 8.2 8.4 15 24 1013.1 0 18.6 24.3 36.6 96.0 89.2 306.7
02 19:20 17.3 54 7.95 7.9 15 20 1013.1 0 18.0 23.9 35.6 93.4 86.0 295.5
02 19:10 17.7 52 7.85 7.7 17 24 1013.1 0 17.8 23.6 35.1 91.9 84.3 289.7
02 19:00 18.3 51 7.97 8 15 24 1013.1 0 18.0 23.7 35.3 92.4 85.2 292.7
02 18:50 18.4 51 8.02 8.1 15 19 1013.1 0 18.1 23.7 35.4 92.8 85.6 294.4
02 18:40 18.8 49 7.89 8.1 15 20 1013.1 0 17.9 23.4 34.8 91.1 83.7 287.5
02 18:30 18.9 51 8.26 8.6 17 28 1013.1 0 18.6 23.9 36.1 94.6 88.0 302.8
02 18:20 18.7 52 8.32 8.6 20 28 1013.1 0 18.8 24.1 36.4 95.4 89.0 306.1
02 18:10 19.3 50 8.29 8.6 19 24 1013.1 0 18.7 23.9 36.0 94.4 87.9 302.6
02 18:00 19.6 51 8.61 9.2 17 28 1013.1 0 19.3 24.3 37.0 97.2 91.5 315.0
02 17:50 19 50 8.15 8.3 20 22 1013.1 0 18.4 23.8 35.6 93.4 86.6 297.7
02 17:40 20.4 49 8.67 9.3 13 19 1013.1 0 19.4 24.2 36.9 96.8 91.3 314.5
02 17:30 19.7 49 8.32 8.7 22 32 1013.1 0 18.7 23.8 35.9 94.2 87.9 302.3
02 17:20 20.2 48 8.39 8.8 15 22 1013.1 0 18.8 23.8 36.0 94.3 88.1 303.4
02 17:10 21 46 8.43 9.2 22 32 1013.1 0 18.9 23.7 35.8 93.8 87.7 302.1
02 17:00 20.7 49 8.82 9.6 19 28 1013.1 0 19.7 24.3 37.3 97.9 92.8 319.6
02 16:50 20.8 48 8.69 9.4 13 19 1013.1 0 19.4 24.1 36.8 96.5 91.1 313.7
02 16:40 21.3 48 8.95 9.8 19 32 1013.1 0 20.0 24.3 37.5 98.5 93.6 322.7
02 16:30 20.9 50 9.11 10.1 19 32 1013.1 0 20.3 24.7 38.3 100.5 96.1 331.2
02 16:20 21.1 50 9.21 10.5 19 24 1013.1 0 20.5 24.8 38.6 101.3 97.0 334.6

Last Refresh: 03-Dec-2021 09:09:30

Bureau of Meteorology